sensor_id;sensor_type;location;lat;lon;timestamp;P1;durP1;ratioP1;P2;durP2;ratioP2
16436;SDS011;8328;52.206;21.006;2022-08-05T00:01:45;10.10;;;6.27;;
16436;SDS011;8328;52.206;21.006;2022-08-05T00:04:11;10.70;;;6.33;;
16436;SDS011;8328;52.206;21.006;2022-08-05T00:06:37;8.37;;;5.90;;
16436;SDS011;8328;52.206;21.006;2022-08-05T00:09:04;7.43;;;6.10;;
16436;SDS011;8328;52.206;21.006;2022-08-05T00:11:30;8.43;;;5.97;;
16436;SDS011;8328;52.206;21.006;2022-08-05T00:13:56;6.70;;;6.10;;
16436;SDS011;8328;52.206;21.006;2022-08-05T00:16:22;6.83;;;5.87;;
16436;SDS011;8328;52.206;21.006;2022-08-05T00:18:49;7.00;;;6.30;;
16436;SDS011;8328;52.206;21.006;2022-08-05T00:21:16;7.10;;;6.03;;
16436;SDS011;8328;52.206;21.006;2022-08-05T00:23:44;6.57;;;5.97;;
16436;SDS011;8328;52.206;21.006;2022-08-05T00:26:11;9.33;;;6.27;;
16436;SDS011;8328;52.206;21.006;2022-08-05T00:28:37;6.77;;;6.10;;
16436;SDS011;8328;52.206;21.006;2022-08-05T00:31:04;8.03;;;6.10;;
16436;SDS011;8328;52.206;21.006;2022-08-05T00:33:31;8.77;;;6.37;;
16436;SDS011;8328;52.206;21.006;2022-08-05T00:35:57;7.23;;;6.50;;
16436;SDS011;8328;52.206;21.006;2022-08-05T00:38:24;7.40;;;6.63;;
16436;SDS011;8328;52.206;21.006;2022-08-05T00:40:51;9.37;;;6.57;;
16436;SDS011;8328;52.206;21.006;2022-08-05T00:43:19;9.80;;;6.70;;
16436;SDS011;8328;52.206;21.006;2022-08-05T00:45:45;7.60;;;6.73;;
16436;SDS011;8328;52.206;21.006;2022-08-05T00:48:21;7.53;;;6.70;;
16436;SDS011;8328;52.206;21.006;2022-08-05T00:50:48;7.20;;;6.50;;
16436;SDS011;8328;52.206;21.006;2022-08-05T00:53:18;7.27;;;6.27;;
16436;SDS011;8328;52.206;21.006;2022-08-05T00:55:47;6.37;;;5.77;;
16436;SDS011;8328;52.206;21.006;2022-08-05T00:58:14;8.33;;;6.43;;
16436;SDS011;8328;52.206;21.006;2022-08-05T01:00:41;9.00;;;6.13;;
16436;SDS011;8328;52.206;21.006;2022-08-05T01:03:07;9.03;;;6.40;;
16436;SDS011;8328;52.206;21.006;2022-08-05T01:05:37;8.63;;;6.30;;
16436;SDS011;8328;52.206;21.006;2022-08-05T01:08:06;6.73;;;6.13;;
16436;SDS011;8328;52.206;21.006;2022-08-05T01:10:37;7.87;;;6.37;;
16436;SDS011;8328;52.206;21.006;2022-08-05T01:13:14;10.63;;;6.40;;
16436;SDS011;8328;52.206;21.006;2022-08-05T01:15:46;8.57;;;6.30;;
16436;SDS011;8328;52.206;21.006;2022-08-05T01:18:21;7.50;;;6.50;;
16436;SDS011;8328;52.206;21.006;2022-08-05T01:26:32;7.83;;;6.30;;
16436;SDS011;8328;52.206;21.006;2022-08-05T01:29:03;7.07;;;6.37;;
16436;SDS011;8328;52.206;21.006;2022-08-05T01:31:39;7.17;;;6.23;;
16436;SDS011;8328;52.206;21.006;2022-08-05T01:34:11;7.70;;;6.07;;
16436;SDS011;8328;52.206;21.006;2022-08-05T01:36:52;8.30;;;6.40;;
16436;SDS011;8328;52.206;21.006;2022-08-05T01:39:20;9.70;;;6.70;;
16436;SDS011;8328;52.206;21.006;2022-08-05T01:41:46;8.83;;;6.30;;
16436;SDS011;8328;52.206;21.006;2022-08-05T01:44:14;10.50;;;6.03;;
16436;SDS011;8328;52.206;21.006;2022-08-05T01:46:42;10.37;;;6.40;;
16436;SDS011;8328;52.206;21.006;2022-08-05T01:49:09;8.03;;;6.80;;
16436;SDS011;8328;52.206;21.006;2022-08-05T01:51:37;7.13;;;6.10;;
16436;SDS011;8328;52.206;21.006;2022-08-05T01:54:04;9.93;;;6.97;;
16436;SDS011;8328;52.206;21.006;2022-08-05T01:56:34;8.37;;;7.23;;
16436;SDS011;8328;52.206;21.006;2022-08-05T01:59:05;7.43;;;6.80;;
16436;SDS011;8328;52.206;21.006;2022-08-05T02:01:35;7.73;;;6.93;;
16436;SDS011;8328;52.206;21.006;2022-08-05T02:04:02;8.30;;;7.43;;
16436;SDS011;8328;52.206;21.006;2022-08-05T02:06:29;10.33;;;6.90;;
16436;SDS011;8328;52.206;21.006;2022-08-05T02:08:57;7.73;;;6.73;;
16436;SDS011;8328;52.206;21.006;2022-08-05T02:11:23;9.17;;;7.27;;
16436;SDS011;8328;52.206;21.006;2022-08-05T02:13:53;10.77;;;6.80;;
16436;SDS011;8328;52.206;21.006;2022-08-05T02:16:26;8.73;;;6.93;;
16436;SDS011;8328;52.206;21.006;2022-08-05T02:22:04;8.13;;;7.07;;
16436;SDS011;8328;52.206;21.006;2022-08-05T02:24:40;9.23;;;7.10;;
16436;SDS011;8328;52.206;21.006;2022-08-05T02:27:10;8.23;;;7.07;;
16436;SDS011;8328;52.206;21.006;2022-08-05T02:29:38;11.50;;;10.13;;
16436;SDS011;8328;52.206;21.006;2022-08-05T02:32:07;14.27;;;9.50;;
16436;SDS011;8328;52.206;21.006;2022-08-05T02:34:35;8.83;;;8.03;;
16436;SDS011;8328;52.206;21.006;2022-08-05T02:37:02;9.80;;;8.80;;
16436;SDS011;8328;52.206;21.006;2022-08-05T02:39:33;11.43;;;7.20;;
16436;SDS011;8328;52.206;21.006;2022-08-05T02:42:00;10.93;;;8.27;;
16436;SDS011;8328;52.206;21.006;2022-08-05T02:44:29;11.60;;;9.50;;
16436;SDS011;8328;52.206;21.006;2022-08-05T02:46:56;9.23;;;8.30;;
16436;SDS011;8328;52.206;21.006;2022-08-05T02:49:23;8.63;;;7.83;;
16436;SDS011;8328;52.206;21.006;2022-08-05T02:51:51;8.03;;;7.23;;
16436;SDS011;8328;52.206;21.006;2022-08-05T02:54:19;8.00;;;7.20;;
16436;SDS011;8328;52.206;21.006;2022-08-05T02:56:46;7.53;;;6.83;;
16436;SDS011;8328;52.206;21.006;2022-08-05T02:59:13;8.13;;;7.33;;
16436;SDS011;8328;52.206;21.006;2022-08-05T03:01:43;8.50;;;7.60;;
16436;SDS011;8328;52.206;21.006;2022-08-05T03:04:13;7.87;;;7.07;;
16436;SDS011;8328;52.206;21.006;2022-08-05T03:06:42;9.13;;;7.53;;
16436;SDS011;8328;52.206;21.006;2022-08-05T03:09:10;9.03;;;8.10;;
16436;SDS011;8328;52.206;21.006;2022-08-05T03:11:39;8.63;;;7.77;;
16436;SDS011;8328;52.206;21.006;2022-08-05T03:14:07;10.37;;;7.67;;
16436;SDS011;8328;52.206;21.006;2022-08-05T03:16:32;11.47;;;7.73;;
16436;SDS011;8328;52.206;21.006;2022-08-05T03:18:59;8.80;;;7.80;;
16436;SDS011;8328;52.206;21.006;2022-08-05T03:21:25;9.10;;;7.30;;
16436;SDS011;8328;52.206;21.006;2022-08-05T03:23:51;9.27;;;8.00;;
16436;SDS011;8328;52.206;21.006;2022-08-05T03:26:18;8.17;;;7.30;;
16436;SDS011;8328;52.206;21.006;2022-08-05T03:28:44;8.60;;;7.80;;
16436;SDS011;8328;52.206;21.006;2022-08-05T03:31:10;10.17;;;8.13;;
16436;SDS011;8328;52.206;21.006;2022-08-05T03:33:37;9.17;;;7.50;;
16436;SDS011;8328;52.206;21.006;2022-08-05T03:36:03;9.03;;;8.00;;
16436;SDS011;8328;52.206;21.006;2022-08-05T03:38:30;10.73;;;7.63;;
16436;SDS011;8328;52.206;21.006;2022-08-05T03:40:56;9.43;;;7.73;;
16436;SDS011;8328;52.206;21.006;2022-08-05T03:43:22;9.77;;;7.73;;
16436;SDS011;8328;52.206;21.006;2022-08-05T03:45:53;9.90;;;7.73;;
16436;SDS011;8328;52.206;21.006;2022-08-05T03:48:19;10.23;;;7.47;;
16436;SDS011;8328;52.206;21.006;2022-08-05T03:50:54;8.33;;;7.57;;
16436;SDS011;8328;52.206;21.006;2022-08-05T03:53:49;10.53;;;7.40;;
16436;SDS011;8328;52.206;21.006;2022-08-05T03:58:45;11.77;;;8.03;;
16436;SDS011;8328;52.206;21.006;2022-08-05T04:01:15;8.13;;;7.40;;
16436;SDS011;8328;52.206;21.006;2022-08-05T04:03:43;8.30;;;7.37;;
16436;SDS011;8328;52.206;21.006;2022-08-05T04:06:12;9.10;;;7.00;;
16436;SDS011;8328;52.206;21.006;2022-08-05T04:08:40;9.67;;;7.10;;
16436;SDS011;8328;52.206;21.006;2022-08-05T04:11:07;8.00;;;7.10;;
16436;SDS011;8328;52.206;21.006;2022-08-05T04:13:34;8.20;;;7.40;;
16436;SDS011;8328;52.206;21.006;2022-08-05T04:16:04;10.20;;;7.00;;
16436;SDS011;8328;52.206;21.006;2022-08-05T04:18:32;7.30;;;6.50;;
16436;SDS011;8328;52.206;21.006;2022-08-05T04:20:59;8.23;;;7.40;;
16436;SDS011;8328;52.206;21.006;2022-08-05T04:23:25;10.47;;;7.50;;
16436;SDS011;8328;52.206;21.006;2022-08-05T04:25:52;7.63;;;6.93;;
16436;SDS011;8328;52.206;21.006;2022-08-05T04:28:19;7.87;;;7.13;;
16436;SDS011;8328;52.206;21.006;2022-08-05T04:30:45;7.70;;;6.93;;
16436;SDS011;8328;52.206;21.006;2022-08-05T04:33:12;7.80;;;6.87;;
16436;SDS011;8328;52.206;21.006;2022-08-05T04:35:39;7.90;;;7.20;;
16436;SDS011;8328;52.206;21.006;2022-08-05T04:38:06;9.90;;;8.90;;
16436;SDS011;8328;52.206;21.006;2022-08-05T04:40:32;11.90;;;9.27;;
16436;SDS011;8328;52.206;21.006;2022-08-05T04:42:59;7.37;;;6.67;;
16436;SDS011;8328;52.206;21.006;2022-08-05T04:45:25;8.73;;;6.73;;
16436;SDS011;8328;52.206;21.006;2022-08-05T04:47:51;8.07;;;7.30;;
16436;SDS011;8328;52.206;21.006;2022-08-05T04:50:17;8.40;;;7.60;;
16436;SDS011;8328;52.206;21.006;2022-08-05T04:52:43;8.33;;;7.53;;
16436;SDS011;8328;52.206;21.006;2022-08-05T04:55:10;10.73;;;9.63;;
16436;SDS011;8328;52.206;21.006;2022-08-05T04:57:36;10.47;;;9.47;;
16436;SDS011;8328;52.206;21.006;2022-08-05T05:00:04;14.40;;;9.10;;
16436;SDS011;8328;52.206;21.006;2022-08-05T05:02:30;10.83;;;9.30;;
16436;SDS011;8328;52.206;21.006;2022-08-05T05:04:56;9.10;;;8.30;;
16436;SDS011;8328;52.206;21.006;2022-08-05T05:07:31;9.77;;;8.77;;
16436;SDS011;8328;52.206;21.006;2022-08-05T05:09:57;10.30;;;9.30;;
16436;SDS011;8328;52.206;21.006;2022-08-05T05:12:25;15.27;;;10.90;;
16436;SDS011;8328;52.206;21.006;2022-08-05T05:14:57;11.40;;;10.30;;
16436;SDS011;8328;52.206;21.006;2022-08-05T05:17:23;10.87;;;9.83;;
16436;SDS011;8328;52.206;21.006;2022-08-05T05:19:51;12.53;;;9.57;;
16436;SDS011;8328;52.206;21.006;2022-08-05T05:22:18;10.53;;;9.47;;
16436;SDS011;8328;52.206;21.006;2022-08-05T05:24:47;10.77;;;9.80;;
16436;SDS011;8328;52.206;21.006;2022-08-05T05:29:45;11.43;;;10.33;;
16436;SDS011;8328;52.206;21.006;2022-08-05T05:32:11;13.03;;;11.63;;
16436;SDS011;8328;52.206;21.006;2022-08-05T05:34:46;12.17;;;9.50;;
16436;SDS011;8328;52.206;21.006;2022-08-05T05:37:12;13.00;;;10.40;;
16436;SDS011;8328;52.206;21.006;2022-08-05T05:42:52;14.23;;;13.00;;
16436;SDS011;8328;52.206;21.006;2022-08-05T05:48:52;11.37;;;10.23;;
16436;SDS011;8328;52.206;21.006;2022-08-05T05:51:21;9.17;;;8.30;;
16436;SDS011;8328;52.206;21.006;2022-08-05T05:56:22;11.60;;;10.60;;
16436;SDS011;8328;52.206;21.006;2022-08-05T06:09:40;8.10;;;7.30;;
16436;SDS011;8328;52.206;21.006;2022-08-05T06:12:06;10.80;;;9.47;;
16436;SDS011;8328;52.206;21.006;2022-08-05T06:14:32;13.40;;;12.03;;
16436;SDS011;8328;52.206;21.006;2022-08-05T06:16:58;13.10;;;11.10;;
16436;SDS011;8328;52.206;21.006;2022-08-05T06:19:25;9.57;;;7.97;;
16436;SDS011;8328;52.206;21.006;2022-08-05T06:21:51;7.43;;;6.70;;
16436;SDS011;8328;52.206;21.006;2022-08-05T06:24:17;7.57;;;6.60;;
16436;SDS011;8328;52.206;21.006;2022-08-05T06:26:43;8.90;;;6.53;;
16436;SDS011;8328;52.206;21.006;2022-08-05T06:29:09;7.00;;;6.30;;
16436;SDS011;8328;52.206;21.006;2022-08-05T06:31:36;7.70;;;6.60;;
16436;SDS011;8328;52.206;21.006;2022-08-05T06:34:03;9.80;;;7.00;;
16436;SDS011;8328;52.206;21.006;2022-08-05T06:36:29;7.60;;;6.00;;
16436;SDS011;8328;52.206;21.006;2022-08-05T06:38:55;8.17;;;6.40;;
16436;SDS011;8328;52.206;21.006;2022-08-05T06:41:21;8.27;;;7.47;;
16436;SDS011;8328;52.206;21.006;2022-08-05T06:43:47;8.23;;;5.73;;
16436;SDS011;8328;52.206;21.006;2022-08-05T06:46:13;6.43;;;5.83;;
16436;SDS011;8328;52.206;21.006;2022-08-05T06:48:40;8.30;;;6.37;;
16436;SDS011;8328;52.206;21.006;2022-08-05T06:51:05;6.67;;;6.07;;
16436;SDS011;8328;52.206;21.006;2022-08-05T06:53:31;6.87;;;6.20;;
16436;SDS011;8328;52.206;21.006;2022-08-05T06:55:59;6.63;;;6.03;;
16436;SDS011;8328;52.206;21.006;2022-08-05T06:58:27;6.07;;;5.27;;
16436;SDS011;8328;52.206;21.006;2022-08-05T07:00:59;6.40;;;5.70;;
16436;SDS011;8328;52.206;21.006;2022-08-05T07:03:26;7.20;;;5.67;;
16436;SDS011;8328;52.206;21.006;2022-08-05T07:05:53;6.17;;;5.57;;
16436;SDS011;8328;52.206;21.006;2022-08-05T07:08:19;6.97;;;5.40;;
16436;SDS011;8328;52.206;21.006;2022-08-05T07:10:46;8.03;;;5.83;;
16436;SDS011;8328;52.206;21.006;2022-08-05T07:13:13;6.80;;;6.20;;
16436;SDS011;8328;52.206;21.006;2022-08-05T07:15:58;8.33;;;5.70;;
16436;SDS011;8328;52.206;21.006;2022-08-05T07:18:42;5.67;;;5.17;;
16436;SDS011;8328;52.206;21.006;2022-08-05T07:21:08;5.60;;;5.07;;
16436;SDS011;8328;52.206;21.006;2022-08-05T07:23:34;5.53;;;5.03;;
16436;SDS011;8328;52.206;21.006;2022-08-05T07:26:01;6.47;;;5.37;;
16436;SDS011;8328;52.206;21.006;2022-08-05T07:28:30;8.47;;;5.00;;
16436;SDS011;8328;52.206;21.006;2022-08-05T07:30:56;5.47;;;4.97;;
16436;SDS011;8328;52.206;21.006;2022-08-05T07:33:22;5.77;;;4.57;;
16436;SDS011;8328;52.206;21.006;2022-08-05T07:35:48;10.50;;;4.73;;
16436;SDS011;8328;52.206;21.006;2022-08-05T07:38:14;6.17;;;4.20;;
16436;SDS011;8328;52.206;21.006;2022-08-05T07:40:41;4.77;;;4.10;;
16436;SDS011;8328;52.206;21.006;2022-08-05T07:43:08;4.87;;;4.47;;
16436;SDS011;8328;52.206;21.006;2022-08-05T07:45:34;4.87;;;4.37;;
16436;SDS011;8328;52.206;21.006;2022-08-05T07:48:00;5.80;;;4.40;;
16436;SDS011;8328;52.206;21.006;2022-08-05T07:50:26;6.17;;;4.63;;
16436;SDS011;8328;52.206;21.006;2022-08-05T07:52:52;6.27;;;4.40;;
16436;SDS011;8328;52.206;21.006;2022-08-05T07:55:18;5.10;;;4.70;;
16436;SDS011;8328;52.206;21.006;2022-08-05T07:57:43;4.87;;;4.30;;
16436;SDS011;8328;52.206;21.006;2022-08-05T08:00:09;4.97;;;4.47;;
16436;SDS011;8328;52.206;21.006;2022-08-05T08:02:38;5.23;;;4.20;;
16436;SDS011;8328;52.206;21.006;2022-08-05T08:05:04;4.60;;;4.20;;
16436;SDS011;8328;52.206;21.006;2022-08-05T08:07:31;3.90;;;3.60;;
16436;SDS011;8328;52.206;21.006;2022-08-05T08:09:57;5.47;;;4.20;;
16436;SDS011;8328;52.206;21.006;2022-08-05T08:12:23;4.30;;;4.00;;
16436;SDS011;8328;52.206;21.006;2022-08-05T08:14:49;4.10;;;3.70;;
16436;SDS011;8328;52.206;21.006;2022-08-05T08:17:15;6.70;;;3.87;;
16436;SDS011;8328;52.206;21.006;2022-08-05T08:19:41;5.20;;;4.00;;
16436;SDS011;8328;52.206;21.006;2022-08-05T08:22:08;5.47;;;4.30;;
16436;SDS011;8328;52.206;21.006;2022-08-05T08:24:35;6.13;;;3.80;;
16436;SDS011;8328;52.206;21.006;2022-08-05T08:27:01;4.53;;;3.90;;
16436;SDS011;8328;52.206;21.006;2022-08-05T08:29:28;4.77;;;4.37;;
16436;SDS011;8328;52.206;21.006;2022-08-05T08:31:54;4.80;;;4.00;;
16436;SDS011;8328;52.206;21.006;2022-08-05T08:34:22;5.17;;;3.87;;
16436;SDS011;8328;52.206;21.006;2022-08-05T08:36:49;6.50;;;4.00;;
16436;SDS011;8328;52.206;21.006;2022-08-05T08:39:16;4.23;;;3.77;;
16436;SDS011;8328;52.206;21.006;2022-08-05T08:41:46;4.43;;;4.00;;
16436;SDS011;8328;52.206;21.006;2022-08-05T08:44:19;4.17;;;3.77;;
16436;SDS011;8328;52.206;21.006;2022-08-05T08:46:46;4.97;;;3.90;;
16436;SDS011;8328;52.206;21.006;2022-08-05T08:49:16;6.23;;;5.63;;
16436;SDS011;8328;52.206;21.006;2022-08-05T08:51:48;3.80;;;3.50;;
16436;SDS011;8328;52.206;21.006;2022-08-05T08:54:21;7.17;;;4.03;;
16436;SDS011;8328;52.206;21.006;2022-08-05T08:56:47;4.27;;;3.90;;
16436;SDS011;8328;52.206;21.006;2022-08-05T08:59:13;4.20;;;3.90;;
16436;SDS011;8328;52.206;21.006;2022-08-05T09:01:39;4.40;;;4.00;;
16436;SDS011;8328;52.206;21.006;2022-08-05T09:04:07;4.23;;;3.60;;
16436;SDS011;8328;52.206;21.006;2022-08-05T09:06:32;4.67;;;3.53;;
16436;SDS011;8328;52.206;21.006;2022-08-05T09:08:59;4.33;;;3.90;;
16436;SDS011;8328;52.206;21.006;2022-08-05T09:11:25;3.70;;;3.37;;
16436;SDS011;8328;52.206;21.006;2022-08-05T09:13:51;4.33;;;3.73;;
16436;SDS011;8328;52.206;21.006;2022-08-05T09:16:19;3.70;;;3.40;;
16436;SDS011;8328;52.206;21.006;2022-08-05T09:18:45;4.10;;;3.80;;
16436;SDS011;8328;52.206;21.006;2022-08-05T09:21:12;4.10;;;3.60;;
16436;SDS011;8328;52.206;21.006;2022-08-05T09:23:38;5.47;;;3.30;;
16436;SDS011;8328;52.206;21.006;2022-08-05T09:26:10;4.70;;;3.43;;
16436;SDS011;8328;52.206;21.006;2022-08-05T09:28:38;4.73;;;3.60;;
16436;SDS011;8328;52.206;21.006;2022-08-05T09:31:05;5.20;;;3.60;;
16436;SDS011;8328;52.206;21.006;2022-08-05T09:33:49;4.33;;;3.20;;
16436;SDS011;8328;52.206;21.006;2022-08-05T09:36:16;3.53;;;3.23;;
16436;SDS011;8328;52.206;21.006;2022-08-05T09:38:59;4.60;;;3.67;;
16436;SDS011;8328;52.206;21.006;2022-08-05T09:41:28;3.60;;;3.20;;
16436;SDS011;8328;52.206;21.006;2022-08-05T09:43:54;3.97;;;3.60;;
16436;SDS011;8328;52.206;21.006;2022-08-05T09:48:56;3.97;;;3.43;;
16436;SDS011;8328;52.206;21.006;2022-08-05T09:51:38;3.53;;;3.03;;
16436;SDS011;8328;52.206;21.006;2022-08-05T09:54:06;3.40;;;3.10;;
16436;SDS011;8328;52.206;21.006;2022-08-05T09:56:36;3.40;;;3.10;;
16436;SDS011;8328;52.206;21.006;2022-08-05T09:59:06;3.33;;;2.80;;
16436;SDS011;8328;52.206;21.006;2022-08-05T10:01:38;6.43;;;3.03;;
16436;SDS011;8328;52.206;21.006;2022-08-05T10:04:11;3.63;;;3.00;;
16436;SDS011;8328;52.206;21.006;2022-08-05T10:06:38;4.60;;;2.97;;
16436;SDS011;8328;52.206;21.006;2022-08-05T10:09:15;3.17;;;2.87;;
16436;SDS011;8328;52.206;21.006;2022-08-05T10:11:43;6.87;;;2.80;;
16436;SDS011;8328;52.206;21.006;2022-08-05T10:14:30;3.30;;;3.00;;
16436;SDS011;8328;52.206;21.006;2022-08-05T10:17:10;4.90;;;3.20;;
16436;SDS011;8328;52.206;21.006;2022-08-05T10:19:37;5.00;;;3.00;;
16436;SDS011;8328;52.206;21.006;2022-08-05T10:22:03;3.17;;;2.90;;
16436;SDS011;8328;52.206;21.006;2022-08-05T10:24:31;4.17;;;3.00;;
16436;SDS011;8328;52.206;21.006;2022-08-05T10:26:57;5.93;;;3.20;;
16436;SDS011;8328;52.206;21.006;2022-08-05T10:29:24;4.37;;;3.40;;
16436;SDS011;8328;52.206;21.006;2022-08-05T10:31:53;4.80;;;2.83;;
16436;SDS011;8328;52.206;21.006;2022-08-05T10:34:19;3.70;;;2.83;;
16436;SDS011;8328;52.206;21.006;2022-08-05T10:36:46;4.57;;;3.30;;
16436;SDS011;8328;52.206;21.006;2022-08-05T10:39:16;3.13;;;2.87;;
16436;SDS011;8328;52.206;21.006;2022-08-05T10:44:25;4.40;;;3.00;;
16436;SDS011;8328;52.206;21.006;2022-08-05T10:46:53;6.13;;;2.90;;
16436;SDS011;8328;52.206;21.006;2022-08-05T10:49:21;5.57;;;3.20;;
16436;SDS011;8328;52.206;21.006;2022-08-05T10:51:49;4.30;;;3.00;;
16436;SDS011;8328;52.206;21.006;2022-08-05T10:54:23;3.50;;;3.10;;
16436;SDS011;8328;52.206;21.006;2022-08-05T10:57:10;3.30;;;3.00;;
16436;SDS011;8328;52.206;21.006;2022-08-05T10:59:37;3.77;;;2.87;;
16436;SDS011;8328;52.206;21.006;2022-08-05T11:02:10;6.70;;;2.90;;
16436;SDS011;8328;52.206;21.006;2022-08-05T11:04:47;4.33;;;3.20;;
16436;SDS011;8328;52.206;21.006;2022-08-05T11:07:18;5.83;;;2.97;;
16436;SDS011;8328;52.206;21.006;2022-08-05T11:09:51;3.77;;;3.10;;
16436;SDS011;8328;52.206;21.006;2022-08-05T11:15:26;5.23;;;3.23;;
16436;SDS011;8328;52.206;21.006;2022-08-05T11:18:07;3.20;;;2.87;;
16436;SDS011;8328;52.206;21.006;2022-08-05T11:20:48;3.13;;;2.83;;
16436;SDS011;8328;52.206;21.006;2022-08-05T11:26:07;4.33;;;3.10;;
16436;SDS011;8328;52.206;21.006;2022-08-05T11:28:47;4.97;;;3.00;;
16436;SDS011;8328;52.206;21.006;2022-08-05T11:31:17;3.77;;;3.40;;
16436;SDS011;8328;52.206;21.006;2022-08-05T11:33:53;3.60;;;3.10;;
16436;SDS011;8328;52.206;21.006;2022-08-05T11:36:40;3.67;;;3.10;;
16436;SDS011;8328;52.206;21.006;2022-08-05T11:39:12;3.30;;;2.90;;
16436;SDS011;8328;52.206;21.006;2022-08-05T11:41:39;6.03;;;3.33;;
16436;SDS011;8328;52.206;21.006;2022-08-05T11:44:10;3.67;;;3.00;;
16436;SDS011;8328;52.206;21.006;2022-08-05T11:49:13;8.95;;;3.08;;
16436;SDS011;8328;52.206;21.006;2022-08-05T11:51:41;4.22;;;3.65;;
16436;SDS011;8328;52.206;21.006;2022-08-05T11:54:09;4.22;;;2.80;;
16436;SDS011;8328;52.206;21.006;2022-08-05T11:56:43;3.95;;;3.60;;
16436;SDS011;8328;52.206;21.006;2022-08-05T11:59:14;3.13;;;2.80;;
16436;SDS011;8328;52.206;21.006;2022-08-05T12:04:22;6.55;;;3.40;;
16436;SDS011;8328;52.206;21.006;2022-08-05T12:06:49;3.42;;;3.13;;
16436;SDS011;8328;52.206;21.006;2022-08-05T12:09:17;4.35;;;3.15;;
16436;SDS011;8328;52.206;21.006;2022-08-05T12:11:45;3.33;;;2.92;;
16436;SDS011;8328;52.206;21.006;2022-08-05T12:14:11;5.82;;;3.20;;
16436;SDS011;8328;52.206;21.006;2022-08-05T12:16:38;3.50;;;3.03;;
16436;SDS011;8328;52.206;21.006;2022-08-05T12:19:06;5.05;;;3.58;;
16436;SDS011;8328;52.206;21.006;2022-08-05T12:21:45;5.75;;;3.40;;
16436;SDS011;8328;52.206;21.006;2022-08-05T12:26:46;3.53;;;3.28;;
16436;SDS011;8328;52.206;21.006;2022-08-05T12:31:56;4.07;;;3.75;;
16436;SDS011;8328;52.206;21.006;2022-08-05T12:34:25;4.22;;;3.72;;
16436;SDS011;8328;52.206;21.006;2022-08-05T12:36:56;6.20;;;4.50;;
16436;SDS011;8328;52.206;21.006;2022-08-05T12:39:23;8.18;;;3.97;;
16436;SDS011;8328;52.206;21.006;2022-08-05T12:41:55;4.13;;;3.75;;
16436;SDS011;8328;52.206;21.006;2022-08-05T12:44:23;5.03;;;3.85;;
16436;SDS011;8328;52.206;21.006;2022-08-05T12:46:51;3.83;;;3.50;;
16436;SDS011;8328;52.206;21.006;2022-08-05T12:49:19;4.97;;;4.10;;
16436;SDS011;8328;52.206;21.006;2022-08-05T12:51:46;4.78;;;3.83;;
16436;SDS011;8328;52.206;21.006;2022-08-05T12:54:21;7.70;;;3.45;;
16436;SDS011;8328;52.206;21.006;2022-08-05T12:56:51;3.80;;;3.50;;
16436;SDS011;8328;52.206;21.006;2022-08-05T12:59:19;4.18;;;3.88;;
16436;SDS011;8328;52.206;21.006;2022-08-05T13:02:01;4.32;;;3.90;;
16436;SDS011;8328;52.206;21.006;2022-08-05T13:04:39;4.65;;;3.28;;
16436;SDS011;8328;52.206;21.006;2022-08-05T13:07:08;6.70;;;3.55;;
16436;SDS011;8328;52.206;21.006;2022-08-05T13:09:39;3.95;;;3.65;;
16436;SDS011;8328;52.206;21.006;2022-08-05T13:12:11;4.10;;;3.70;;
16436;SDS011;8328;52.206;21.006;2022-08-05T13:14:45;3.67;;;3.45;;
16436;SDS011;8328;52.206;21.006;2022-08-05T13:22:26;4.05;;;3.47;;
16436;SDS011;8328;52.206;21.006;2022-08-05T13:24:52;4.88;;;3.40;;
16436;SDS011;8328;52.206;21.006;2022-08-05T13:27:29;4.18;;;3.47;;
16436;SDS011;8328;52.206;21.006;2022-08-05T13:29:56;3.42;;;3.00;;
16436;SDS011;8328;52.206;21.006;2022-08-05T13:32:23;3.80;;;3.50;;
16436;SDS011;8328;52.206;21.006;2022-08-05T13:34:49;3.92;;;3.63;;
16436;SDS011;8328;52.206;21.006;2022-08-05T13:37:19;4.68;;;3.25;;
16436;SDS011;8328;52.206;21.006;2022-08-05T13:39:46;3.85;;;3.38;;
16436;SDS011;8328;52.206;21.006;2022-08-05T13:42:13;4.57;;;3.42;;
16436;SDS011;8328;52.206;21.006;2022-08-05T13:44:38;5.40;;;3.05;;
16436;SDS011;8328;52.206;21.006;2022-08-05T13:47:04;3.85;;;3.50;;
16436;SDS011;8328;52.206;21.006;2022-08-05T13:49:30;3.90;;;3.60;;
16436;SDS011;8328;52.206;21.006;2022-08-05T13:51:56;3.45;;;3.25;;
16436;SDS011;8328;52.206;21.006;2022-08-05T13:54:22;5.20;;;3.78;;
16436;SDS011;8328;52.206;21.006;2022-08-05T13:56:50;3.92;;;3.63;;
16436;SDS011;8328;52.206;21.006;2022-08-05T13:59:19;4.85;;;3.72;;
16436;SDS011;8328;52.206;21.006;2022-08-05T14:01:48;4.20;;;3.80;;
16436;SDS011;8328;52.206;21.006;2022-08-05T14:04:14;3.90;;;3.60;;
16436;SDS011;8328;52.206;21.006;2022-08-05T14:06:58;4.85;;;3.58;;
16436;SDS011;8328;52.206;21.006;2022-08-05T14:09:24;3.92;;;3.63;;
16436;SDS011;8328;52.206;21.006;2022-08-05T14:11:50;3.75;;;3.50;;
16436;SDS011;8328;52.206;21.006;2022-08-05T14:14:16;4.63;;;3.50;;
16436;SDS011;8328;52.206;21.006;2022-08-05T14:16:41;5.50;;;3.60;;
16436;SDS011;8328;52.206;21.006;2022-08-05T14:19:07;5.00;;;3.95;;
16436;SDS011;8328;52.206;21.006;2022-08-05T14:21:33;6.15;;;4.13;;
16436;SDS011;8328;52.206;21.006;2022-08-05T14:23:59;5.22;;;4.10;;
16436;SDS011;8328;52.206;21.006;2022-08-05T14:26:25;4.68;;;3.90;;
16436;SDS011;8328;52.206;21.006;2022-08-05T14:28:50;4.53;;;4.00;;
16436;SDS011;8328;52.206;21.006;2022-08-05T14:31:16;5.53;;;3.83;;
16436;SDS011;8328;52.206;21.006;2022-08-05T14:33:42;4.20;;;3.80;;
16436;SDS011;8328;52.206;21.006;2022-08-05T14:36:08;4.03;;;3.70;;
16436;SDS011;8328;52.206;21.006;2022-08-05T14:38:33;4.30;;;4.00;;
16436;SDS011;8328;52.206;21.006;2022-08-05T14:41:00;6.55;;;4.10;;
16436;SDS011;8328;52.206;21.006;2022-08-05T14:43:29;5.15;;;3.67;;
16436;SDS011;8328;52.206;21.006;2022-08-05T14:45:55;3.80;;;3.50;;
16436;SDS011;8328;52.206;21.006;2022-08-05T14:48:21;4.93;;;3.60;;
16436;SDS011;8328;52.206;21.006;2022-08-05T14:50:47;4.50;;;3.83;;
16436;SDS011;8328;52.206;21.006;2022-08-05T14:53:14;4.45;;;3.95;;
16436;SDS011;8328;52.206;21.006;2022-08-05T14:55:40;4.38;;;3.92;;
16436;SDS011;8328;52.206;21.006;2022-08-05T14:58:06;4.30;;;3.97;;
16436;SDS011;8328;52.206;21.006;2022-08-05T15:00:33;5.40;;;4.10;;
16436;SDS011;8328;52.206;21.006;2022-08-05T15:02:59;4.18;;;3.72;;
16436;SDS011;8328;52.206;21.006;2022-08-05T15:05:25;7.03;;;4.07;;
16436;SDS011;8328;52.206;21.006;2022-08-05T15:07:51;6.13;;;3.93;;
16436;SDS011;8328;52.206;21.006;2022-08-05T15:10:17;4.30;;;4.00;;
16436;SDS011;8328;52.206;21.006;2022-08-05T15:12:43;4.60;;;4.20;;
16436;SDS011;8328;52.206;21.006;2022-08-05T15:15:09;5.27;;;4.70;;
16436;SDS011;8328;52.206;21.006;2022-08-05T15:17:35;5.17;;;4.73;;
16436;SDS011;8328;52.206;21.006;2022-08-05T15:20:01;4.83;;;4.37;;
16436;SDS011;8328;52.206;21.006;2022-08-05T15:22:27;5.10;;;4.47;;
16436;SDS011;8328;52.206;21.006;2022-08-05T15:24:54;7.20;;;4.70;;
16436;SDS011;8328;52.206;21.006;2022-08-05T15:27:20;5.07;;;4.60;;
16436;SDS011;8328;52.206;21.006;2022-08-05T15:29:46;5.47;;;5.07;;
16436;SDS011;8328;52.206;21.006;2022-08-05T15:32:12;5.10;;;4.50;;
16436;SDS011;8328;52.206;21.006;2022-08-05T15:34:37;5.43;;;4.20;;
16436;SDS011;8328;52.206;21.006;2022-08-05T15:37:03;8.80;;;4.70;;
16436;SDS011;8328;52.206;21.006;2022-08-05T15:39:29;4.93;;;4.40;;
16436;SDS011;8328;52.206;21.006;2022-08-05T15:41:58;6.07;;;4.87;;
16436;SDS011;8328;52.206;21.006;2022-08-05T15:44:24;5.10;;;4.60;;
16436;SDS011;8328;52.206;21.006;2022-08-05T15:46:56;5.33;;;4.27;;
16436;SDS011;8328;52.206;21.006;2022-08-05T15:49:31;5.10;;;4.60;;
16436;SDS011;8328;52.206;21.006;2022-08-05T15:51:57;8.17;;;5.30;;
16436;SDS011;8328;52.206;21.006;2022-08-05T15:54:23;5.93;;;4.70;;